Time;durP1;ratioP1;P1;durP2;ratioP2;P2;SDS_P1;SDS_P2;PMS_P1;PMS_P2;Temp;Humidity;BMP_temperature;BMP_pressure;BME280_temperature;BME280_humidity;BME280_pressure;Samples;Min_cycle;Max_cycle;Signal;HPM_P1;HPM_P2
2024/02/28 00:02:22;;;;;;;0.90;0.75;;;;;;;4.25;100.00;92059.63;4732711;30;20040;-85
2024/02/28 00:04:47;;;;;;;0.80;0.80;;;;;;;4.33;100.00;92080.63;4746836;30;20044;-83
2024/02/28 00:07:13;;;;;;;0.70;0.70;;;;;;;4.31;100.00;92074.16;4717338;30;20029;-84
2024/02/28 00:09:38;;;;;;;0.70;0.70;;;;;;;4.34;100.00;92084.00;4718752;30;20071;-85
2024/02/28 00:12:04;;;;;;;0.98;0.90;;;;;;;4.30;100.00;92073.38;4718862;30;20044;-84
2024/02/28 00:14:30;;;;;;;0.60;0.60;;;;;;;4.35;100.00;92086.34;4714229;30;20060;-83
2024/02/28 00:16:55;;;;;;;0.70;0.70;;;;;;;4.35;100.00;92094.13;4713939;30;20072;-84
2024/02/28 00:19:22;;;;;;;1.92;0.80;;;;;;;4.32;100.00;92078.28;4747434;30;20123;-84
2024/02/28 00:21:47;;;;;;;0.70;0.70;;;;;;;4.33;100.00;92088.41;4719441;30;20389;-84
2024/02/28 00:24:13;;;;;;;0.60;0.60;;;;;;;4.35;100.00;92096.72;4725003;30;20045;-83
2024/02/28 00:26:42;;;;;;;0.80;0.80;;;;;;;4.33;100.00;92088.41;4721559;30;20056;-84
2024/02/28 00:29:09;;;;;;;0.73;0.73;;;;;;;4.37;100.00;92097.22;4747436;30;20053;-83
2024/02/28 00:31:36;;;;;;;0.60;0.60;;;;;;;4.35;100.00;92091.53;4717495;30;20048;-84
2024/02/28 00:34:01;;;;;;;0.80;0.80;;;;;;;4.41;100.00;92105.25;4718664;30;20083;-85
2024/02/28 00:36:27;;;;;;;1.10;0.80;;;;;;;4.40;100.00;92100.34;4703815;30;20095;-84
2024/02/28 00:38:52;;;;;;;0.88;0.88;;;;;;;4.40;100.00;92106.31;4719721;30;20521;-85
2024/02/28 00:41:18;;;;;;;1.02;0.90;;;;;;;4.38;100.00;92106.56;4722129;30;20037;-84
2024/02/28 00:43:44;;;;;;;1.15;1.00;;;;;;;4.35;100.00;92111.50;4721147;30;20049;-82
2024/02/28 00:46:11;;;;;;;1.23;1.00;;;;;;;4.36;100.00;92106.03;4721460;30;20048;-85
2024/02/28 00:48:40;;;;;;;2.13;1.05;;;;;;;4.36;100.00;92102.66;4717781;30;20526;-82
2024/02/28 00:51:07;;;;;;;0.70;0.70;;;;;;;4.36;100.00;92108.63;4717710;30;20068;-81
2024/02/28 00:53:33;;;;;;;0.50;0.50;;;;;;;4.36;100.00;92110.44;4725283;30;20056;-82
2024/02/28 00:55:58;;;;;;;0.60;0.60;;;;;;;4.35;100.00;92109.66;4728300;30;20076;-85
2024/02/28 00:58:26;;;;;;;0.85;0.80;;;;;;;4.36;100.00;92113.81;4729388;30;20044;-81
2024/02/28 01:00:51;;;;;;;0.60;0.60;;;;;;;4.38;100.00;92122.09;4727673;30;20045;-83
2024/02/28 01:03:18;;;;;;;0.70;0.70;;;;;;;4.38;100.00;92123.91;4726096;30;20128;-84
2024/02/28 01:05:43;;;;;;;0.65;0.65;;;;;;;4.39;100.00;92120.31;4727543;30;20071;-84
2024/02/28 01:08:09;;;;;;;0.70;0.70;;;;;;;4.37;100.00;92125.75;4723824;30;20037;-81
2024/02/28 01:10:36;;;;;;;1.17;0.77;;;;;;;4.36;100.00;92126.75;4726094;30;20036;-84
2024/02/28 01:13:02;;;;;;;1.30;1.00;;;;;;;4.40;100.00;92140.00;4724918;30;20123;-84
2024/02/28 01:15:28;;;;;;;5.13;1.10;;;;;;;4.41;100.00;92149.31;4727728;30;20044;-84
2024/02/28 01:17:53;;;;;;;12.00;1.77;;;;;;;4.41;100.00;92151.13;4725710;30;20573;-84
2024/02/28 01:20:19;;;;;;;1.98;1.23;;;;;;;4.40;100.00;92158.13;4727841;30;20037;-84
2024/02/28 01:22:44;;;;;;;2.70;1.40;;;;;;;4.36;100.00;92152.69;4742128;30;20059;-83
2024/02/28 01:25:10;;;;;;;2.38;1.38;;;;;;;4.36;100.00;92146.72;4724157;30;20054;-82
2024/02/28 01:27:35;;;;;;;1.67;1.10;;;;;;;4.32;100.00;92140.47;4723527;30;20072;-84
2024/02/28 01:30:01;;;;;;;1.73;1.20;;;;;;;4.35;100.00;92152.94;4728497;30;20041;-83
2024/02/28 01:32:29;;;;;;;1.60;0.98;;;;;;;4.35;100.00;92148.53;4726227;30;20055;-83
2024/02/28 01:34:54;;;;;;;0.80;0.80;;;;;;;4.39;100.00;92148.81;4728064;30;20414;-84
2024/02/28 01:37:20;;;;;;;1.08;0.98;;;;;;;4.42;100.00;92152.72;4727632;30;20037;-85
2024/02/28 01:39:46;;;;;;;1.02;0.80;;;;;;;4.43;100.00;92149.84;4724638;30;20033;-83
2024/02/28 01:42:11;;;;;;;1.05;0.90;;;;;;;4.37;100.00;92146.47;4730082;30;20064;-84
2024/02/28 01:44:44;;;;;;;0.90;0.90;;;;;;;4.44;100.00;92156.59;4724097;30;20502;-82
2024/02/28 01:47:10;;;;;;;0.70;0.70;;;;;;;4.45;100.00;92158.16;4726833;30;20036;-84
2024/02/28 01:49:35;;;;;;;0.85;0.85;;;;;;;4.43;100.00;92146.47;4732328;30;20294;-84
2024/02/28 01:52:03;;;;;;;1.10;1.00;;;;;;;4.44;100.00;92150.66;4729214;30;20055;-84
2024/02/28 01:54:29;;;;;;;1.92;1.00;;;;;;;4.44;100.00;92153.22;4725112;30;20523;-85
2024/02/28 01:56:56;;;;;;;0.70;0.70;;;;;;;4.48;100.00;92156.84;4730989;30;20052;-84
2024/02/28 01:59:23;;;;;;;0.90;0.90;;;;;;;4.47;100.00;92163.06;4726306;30;20037;-85
2024/02/28 02:01:50;;;;;;;0.98;0.70;;;;;;;4.37;100.00;92154.25;4728879;30;20505;-84
2024/02/28 02:04:15;;;;;;;1.58;0.90;;;;;;;4.35;100.00;92156.31;4732134;30;20120;-85
2024/02/28 02:06:42;;;;;;;1.85;0.70;;;;;;;4.38;100.00;92163.56;4732394;30;20161;-84
2024/02/28 02:09:08;;;;;;;1.30;0.70;;;;;;;4.39;100.00;92169.56;4748340;30;20052;-84
2024/02/28 02:11:34;;;;;;;0.52;0.52;;;;;;;4.36;100.00;92168.22;4730254;30;20041;-85
2024/02/28 02:14:00;;;;;;;0.68;0.68;;;;;;;4.45;100.00;92180.69;4722885;30;20045;-83
2024/02/28 02:16:29;;;;;;;0.68;0.68;;;;;;;4.46;100.00;92180.44;4734046;30;20060;-85
2024/02/28 02:18:55;;;;;;;59.90;2.45;;;;;;;4.51;100.00;92182.28;4742000;30;20101;-84
2024/02/28 02:21:27;;;;;;;78.22;2.50;;;;;;;4.67;100.00;92189.03;4745531;30;20036;-86
2024/02/28 02:23:52;;;;;;;307.17;7.05;;;;;;;4.62;100.00;92188.28;4751097;30;20051;-81
2024/02/28 02:26:18;;;;;;;283.13;7.45;;;;;;;4.54;100.00;92177.34;4748238;30;20044;-85
2024/02/28 02:28:44;;;;;;;280.27;7.15;;;;;;;4.49;100.00;92186.94;4745297;30;20048;-83
2024/02/28 02:31:11;;;;;;;209.27;5.40;;;;;;;4.43;100.00;92180.16;4736137;30;20055;-84
2024/02/28 02:33:37;;;;;;;8.48;1.00;;;;;;;4.41;100.00;92188.19;4746715;30;20103;-83
2024/02/28 02:36:03;;;;;;;0.80;0.80;;;;;;;4.41;100.00;92182.25;4750158;30;20485;-82
2024/02/28 02:38:28;;;;;;;1.10;1.00;;;;;;;4.40;100.00;92180.69;4752633;30;20452;-83
2024/02/28 02:40:54;;;;;;;2.55;0.82;;;;;;;4.40;100.00;92183.28;4746771;30;20090;-83
2024/02/28 02:43:19;;;;;;;0.75;0.75;;;;;;;4.40;100.00;92181.47;4737785;30;20076;-84
2024/02/28 02:45:45;;;;;;;0.85;0.85;;;;;;;4.42;100.00;92187.16;4746448;30;20040;-84
2024/02/28 02:48:11;;;;;;;0.75;0.70;;;;;;;4.44;100.00;92192.09;4739267;30;20044;-83
2024/02/28 02:50:36;;;;;;;0.95;0.80;;;;;;;4.45;100.00;92191.06;4747201;30;20064;-85
2024/02/28 02:53:03;;;;;;;0.80;0.80;;;;;;;4.46;100.00;92195.19;4748995;30;20219;-82
2024/02/28 02:55:28;;;;;;;0.82;0.82;;;;;;;4.44;100.00;92184.34;4742946;30;20186;-85
2024/02/28 02:57:55;;;;;;;0.60;0.60;;;;;;;4.45;100.00;92197.03;4720765;30;20068;-82
2024/02/28 03:00:21;;;;;;;0.82;0.80;;;;;;;4.47;100.00;92201.97;4737007;30;20063;-83
2024/02/28 03:02:47;;;;;;;0.90;0.90;;;;;;;4.46;100.00;92195.19;4736781;30;20044;-83
2024/02/28 03:05:13;;;;;;;1.58;0.63;;;;;;;4.47;100.00;92204.56;4716843;30;20067;-82
2024/02/28 03:07:39;;;;;;;0.70;0.70;;;;;;;4.47;100.00;92199.38;4733371;30;20071;-85
2024/02/28 03:10:05;;;;;;;0.73;0.73;;;;;;;4.44;100.00;92203.25;4735589;30;20044;-84
2024/02/28 03:12:31;;;;;;;0.60;0.60;;;;;;;4.49;100.00;92207.66;4738592;30;20469;-83
2024/02/28 03:14:57;;;;;;;0.70;0.70;;;;;;;4.56;100.00;92218.56;4740222;30;20044;-84
2024/02/28 03:17:22;;;;;;;1.75;0.80;;;;;;;4.52;100.00;92213.09;4740764;30;20060;-84
2024/02/28 03:19:48;;;;;;;0.75;0.70;;;;;;;4.56;100.00;92216.75;4737575;30;20575;-84
2024/02/28 03:22:14;;;;;;;0.55;0.55;;;;;;;4.54;100.00;92216.22;4764500;30;20052;-85
2024/02/28 03:24:39;;;;;;;0.65;0.65;;;;;;;4.58;100.00;92224.28;4738124;30;20048;-85
2024/02/28 03:27:05;;;;;;;0.70;0.70;;;;;;;4.59;100.00;92215.47;4721315;30;20562;-82
2024/02/28 03:29:31;;;;;;;0.70;0.70;;;;;;;4.58;100.00;92206.91;4732903;30;20036;-84
2024/02/28 03:31:58;;;;;;;0.52;0.52;;;;;;;4.65;100.00;92218.84;4735071;30;20045;-84
2024/02/28 03:34:24;;;;;;;0.65;0.65;;;;;;;4.67;100.00;92222.75;4762324;30;20104;-83
2024/02/28 03:36:50;;;;;;;0.50;0.50;;;;;;;4.58;100.00;92221.69;4740075;30;20040;-84
2024/02/28 03:39:15;;;;;;;0.98;0.80;;;;;;;4.59;100.00;92231.00;4739768;30;20040;-84
2024/02/28 03:41:41;;;;;;;0.52;0.50;;;;;;;4.56;100.00;92219.34;4740950;30;20057;-85
2024/02/28 03:44:06;;;;;;;0.50;0.50;;;;;;;4.56;100.00;92224.53;4735392;30;20067;-83
2024/02/28 03:46:32;;;;;;;0.57;0.57;;;;;;;4.62;100.00;92229.75;4745886;30;20597;-82
2024/02/28 03:48:57;;;;;;;0.57;0.57;;;;;;;4.72;100.00;92235.72;4737924;30;20131;-85
2024/02/28 03:51:23;;;;;;;2.00;0.60;;;;;;;4.70;100.00;92239.59;4735117;30;20053;-85
2024/02/28 03:53:48;;;;;;;0.50;0.50;;;;;;;4.70;100.00;92242.97;4737047;30;20137;-85
2024/02/28 03:56:22;;;;;;;0.52;0.52;;;;;;;4.67;100.00;92238.31;4736232;30;20060;-82
2024/02/28 03:58:48;;;;;;;0.52;0.52;;;;;;;4.68;100.00;92239.84;4736253;30;20092;-83
2024/02/28 04:01:13;;;;;;;0.60;0.60;;;;;;;4.66;100.00;92241.94;4735528;30;20139;-83
2024/02/28 04:03:39;;;;;;;0.70;0.70;;;;;;;4.66;100.00;92241.94;4736582;30;20062;-84
2024/02/28 04:06:04;;;;;;;1.20;0.80;;;;;;;4.65;100.00;92237.00;4765598;30;20055;-82
2024/02/28 04:08:30;;;;;;;2.78;0.50;;;;;;;4.66;100.00;92239.34;4734717;30;20115;-84
2024/02/28 04:10:55;;;;;;;0.50;0.50;;;;;;;4.66;100.00;92236.75;4734613;30;20146;-84
2024/02/28 04:13:21;;;;;;;2.13;0.60;;;;;;;4.64;100.00;92233.66;4734989;30;20044;-83
2024/02/28 04:15:47;;;;;;;0.50;0.50;;;;;;;4.65;100.00;92235.19;4732610;30;20069;-85
2024/02/28 04:18:13;;;;;;;0.75;0.55;;;;;;;4.63;100.00;92234.66;4736633;30;20079;-84
2024/02/28 04:20:38;;;;;;;0.95;0.45;;;;;;;4.62;100.00;92243.47;4736924;30;20090;-83
2024/02/28 04:23:04;;;;;;;0.60;0.60;;;;;;;4.65;100.00;92248.16;4705376;30;20041;-85
2024/02/28 04:25:29;;;;;;;0.73;0.65;;;;;;;4.66;100.00;92241.94;4734423;30;20253;-85
2024/02/28 04:27:57;;;;;;;0.80;0.80;;;;;;;4.65;100.00;92250.75;4735661;30;20045;-84
2024/02/28 04:30:22;;;;;;;0.50;0.50;;;;;;;4.64;100.00;92249.19;4734798;30;20100;-84
2024/02/28 04:32:48;;;;;;;0.70;0.70;;;;;;;4.67;100.00;92253.09;4730084;30;20083;-82
2024/02/28 04:35:18;;;;;;;0.50;0.50;;;;;;;4.68;100.00;92260.59;4736135;30;20056;-85
2024/02/28 04:37:45;;;;;;;0.60;0.60;;;;;;;4.66;100.00;92262.69;4734955;30;20059;-84
2024/02/28 04:40:11;;;;;;;0.85;0.85;;;;;;;4.66;100.00;92256.69;4734524;30;20071;-85
2024/02/28 04:42:37;;;;;;;0.77;0.60;;;;;;;4.65;100.00;92260.34;4740524;30;20041;-85
2024/02/28 04:45:03;;;;;;;1.63;0.70;;;;;;;4.68;100.00;92270.19;4734571;30;20040;-82
2024/02/28 04:47:29;;;;;;;0.70;0.60;;;;;;;4.66;100.00;92273.06;4734398;30;20043;-83
2024/02/28 04:49:54;;;;;;;0.75;0.75;;;;;;;4.65;100.00;92271.47;4732968;30;20044;-82
2024/02/28 04:52:21;;;;;;;0.77;0.77;;;;;;;4.67;100.00;92279.78;4750394;30;20060;-84
2024/02/28 04:54:47;;;;;;;1.02;0.80;;;;;;;4.65;100.00;92275.91;4738104;30;20563;-83
2024/02/28 04:57:13;;;;;;;0.50;0.50;;;;;;;4.67;100.00;92284.22;4734987;30;20079;-83
2024/02/28 04:59:38;;;;;;;1.52;0.90;;;;;;;4.66;100.00;92278.25;4743100;30;20049;-83
2024/02/28 05:02:05;;;;;;;1.10;0.82;;;;;;;4.67;100.00;92284.22;4734070;30;20427;-85
2024/02/28 05:04:31;;;;;;;1.88;0.95;;;;;;;4.66;100.00;92283.44;4736506;30;20096;-85
2024/02/28 05:06:56;;;;;;;0.80;0.80;;;;;;;4.67;100.00;92289.38;4725233;30;20139;-84
2024/02/28 05:09:22;;;;;;;0.60;0.60;;;;;;;4.80;100.00;92291.50;4734915;30;20454;-84
2024/02/28 05:11:47;;;;;;;1.58;0.90;;;;;;;4.80;100.00;92294.88;4735078;30;20117;-85
2024/02/28 05:14:13;;;;;;;0.90;0.88;;;;;;;4.77;100.00;92305.78;4764542;30;20702;-85
2024/02/28 05:16:38;;;;;;;1.02;0.90;;;;;;;4.75;100.00;92301.84;4734675;30;20457;-84
2024/02/28 05:19:04;;;;;;;1.20;0.85;;;;;;;4.74;100.00;92310.69;4733985;30;20097;-82
2024/02/28 05:21:29;;;;;;;1.00;0.90;;;;;;;4.71;100.00;92318.97;4734410;30;20453;-84
2024/02/28 05:23:57;;;;;;;0.65;0.65;;;;;;;4.69;100.00;92321.81;4735804;30;20067;-83
2024/02/28 05:26:22;;;;;;;0.70;0.60;;;;;;;4.71;100.00;92324.16;4732883;30;20059;-83
2024/02/28 05:28:48;;;;;;;0.70;0.63;;;;;;;4.69;100.00;92321.81;4734646;30;20100;-83
2024/02/28 05:31:23;;;;;;;0.70;0.70;;;;;;;4.67;100.00;92316.09;4732493;30;20048;-82
2024/02/28 05:33:51;;;;;;;0.73;0.73;;;;;;;4.66;100.00;92327.50;4733711;30;20569;-83
2024/02/28 05:36:17;;;;;;;0.60;0.60;;;;;;;4.66;100.00;92335.28;4735970;30;20057;-83
2024/02/28 05:38:43;;;;;;;1.75;1.05;;;;;;;4.64;100.00;92337.34;4733865;30;20540;-84
2024/02/28 05:41:08;;;;;;;1.00;0.90;;;;;;;4.65;100.00;92338.91;4733460;30;20037;-84
2024/02/28 05:43:34;;;;;;;0.90;0.90;;;;;;;4.66;100.00;92350.03;4720720;30;20040;-84
2024/02/28 05:45:59;;;;;;;0.90;0.80;;;;;;;4.65;100.00;92359.66;4734878;30;20425;-85
2024/02/28 05:48:26;;;;;;;0.80;0.80;;;;;;;4.66;100.00;92360.41;4737522;30;20041;-81
2024/02/28 05:50:51;;;;;;;0.75;0.75;;;;;;;4.62;100.00;92360.16;4735845;30;20067;-83
2024/02/28 05:53:17;;;;;;;0.70;0.70;;;;;;;4.64;100.00;92362.47;4728438;30;20036;-84
2024/02/28 05:55:44;;;;;;;0.77;0.77;;;;;;;4.62;100.00;92365.34;4733816;30;20048;-83
2024/02/28 05:58:10;;;;;;;1.30;0.90;;;;;;;4.62;100.00;92367.16;4734262;30;20087;-81
2024/02/28 06:00:35;;;;;;;1.45;0.80;;;;;;;4.62;100.00;92375.72;4725029;30;20621;-82
2024/02/28 06:03:01;;;;;;;0.80;0.70;;;;;;;4.62;100.00;92369.75;4722820;30;20041;-82
2024/02/28 06:05:27;;;;;;;1.10;0.80;;;;;;;4.61;100.00;92368.19;4726228;30;20048;-82
2024/02/28 06:07:52;;;;;;;0.75;0.75;;;;;;;4.61;100.00;92375.97;4730161;30;20102;-82
2024/02/28 06:10:18;;;;;;;0.68;0.68;;;;;;;4.61;100.00;92384.50;4716640;30;20037;-82
2024/02/28 06:12:43;;;;;;;1.67;1.02;;;;;;;4.70;100.00;92390.78;4731396;30;20048;-82
2024/02/28 06:15:10;;;;;;;1.25;1.00;;;;;;;4.76;100.00;92396.78;4738581;30;20074;-80
2024/02/28 06:17:36;;;;;;;1.05;0.75;;;;;;;4.72;100.00;92391.31;4732287;30;20086;-82
2024/02/28 06:20:02;;;;;;;1.00;0.90;;;;;;;4.69;100.00;92389.22;4735253;30;20052;-81
2024/02/28 06:22:28;;;;;;;2.70;1.30;;;;;;;4.64;100.00;92389.22;4731151;30;20040;-82
2024/02/28 06:24:53;;;;;;;1.90;1.10;;;;;;;4.61;100.00;92394.88;4733078;30;20498;-79
2024/02/28 06:27:19;;;;;;;2.25;1.50;;;;;;;4.61;100.00;92396.69;4733042;30;20557;-82
2024/02/28 06:29:45;;;;;;;3.08;1.95;;;;;;;4.60;100.00;92408.88;4729975;30;20113;-81
2024/02/28 06:32:11;;;;;;;3.40;2.00;;;;;;;4.58;100.00;92400.56;4735271;30;20102;-82
2024/02/28 06:34:36;;;;;;;2.72;1.80;;;;;;;4.63;100.00;92405.78;4738055;30;20032;-82
2024/02/28 06:37:03;;;;;;;2.97;1.55;;;;;;;4.62;100.00;92403.47;4726270;30;20329;-83
2024/02/28 06:39:29;;;;;;;2.90;1.70;;;;;;;4.65;100.00;92411.50;4738045;30;20044;-81
2024/02/28 06:41:54;;;;;;;3.45;1.60;;;;;;;4.68;100.00;92405.81;4739934;30;20056;-81
2024/02/28 06:44:20;;;;;;;1.27;0.98;;;;;;;4.71;100.00;92415.69;4736590;30;20056;-80
2024/02/28 06:46:45;;;;;;;1.20;1.00;;;;;;;4.72;100.00;92414.66;4735438;30;20099;-81
2024/02/28 06:49:11;;;;;;;1.10;0.85;;;;;;;4.77;100.00;92414.69;4729752;30;20087;-81
2024/02/28 06:51:37;;;;;;;0.77;0.77;;;;;;;4.80;100.00;92414.19;4727547;30;20136;-83
2024/02/28 06:54:03;;;;;;;0.95;0.90;;;;;;;4.85;100.00;92417.84;4718485;30;20521;-81
2024/02/28 06:56:30;;;;;;;0.70;0.70;;;;;;;4.87;100.00;92419.13;4736499;30;20055;-81
2024/02/28 06:58:56;;;;;;;0.98;0.90;;;;;;;4.92;100.00;92420.97;4738127;30;20497;-79
2024/02/28 07:01:21;;;;;;;2.67;0.70;;;;;;;4.96;100.00;92424.63;4741973;30;20048;-82
2024/02/28 07:03:48;;;;;;;1.35;0.95;;;;;;;4.98;100.00;92419.97;4730785;30;20103;-82
2024/02/28 07:06:14;;;;;;;0.73;0.73;;;;;;;5.01;100.00;92428.00;4717348;30;20051;-81
2024/02/28 07:08:39;;;;;;;0.60;0.60;;;;;;;5.03;100.00;92427.78;4737159;30;20040;-82
2024/02/28 07:11:12;;;;;;;1.20;0.75;;;;;;;5.07;100.00;92428.84;4735876;30;20461;-81
2024/02/28 07:13:38;;;;;;;0.80;0.80;;;;;;;5.14;100.00;92429.38;4731711;30;20107;-81
2024/02/28 07:16:04;;;;;;;1.50;0.75;;;;;;;5.13;100.00;92422.59;4726940;30;20056;-81
2024/02/28 07:18:29;;;;;;;0.70;0.70;;;;;;;5.16;100.00;92429.91;4710607;30;20052;-80
2024/02/28 07:20:56;;;;;;;0.57;0.57;;;;;;;5.18;100.00;92435.63;4731049;30;20045;-81
2024/02/28 07:23:22;;;;;;;0.75;0.75;;;;;;;5.20;100.00;92436.16;4738791;30;20039;-80
2024/02/28 07:25:47;;;;;;;0.60;0.60;;;;;;;5.22;100.00;92430.69;4723649;30;20060;-82
2024/02/28 07:28:13;;;;;;;0.80;0.80;;;;;;;5.25;100.00;92434.63;4758694;30;20044;-81
2024/02/28 07:30:39;;;;;;;0.70;0.70;;;;;;;5.26;100.00;92430.97;4759740;30;20051;-81
2024/02/28 07:33:06;;;;;;;0.60;0.60;;;;;;;5.24;100.00;92428.63;4732050;30;20447;-81
2024/02/28 07:35:31;;;;;;;0.88;0.82;;;;;;;5.29;100.00;92436.44;4734403;30;20472;-81
2024/02/28 07:37:57;;;;;;;1.50;0.95;;;;;;;5.32;100.00;92427.38;4733111;30;20048;-82
2024/02/28 07:40:22;;;;;;;1.52;0.70;;;;;;;5.31;100.00;92434.34;4727200;30;20045;-80
2024/02/28 07:42:48;;;;;;;0.90;0.90;;;;;;;5.35;100.00;92426.84;4728983;30;20110;-82
2024/02/28 07:45:14;;;;;;;1.30;0.80;;;;;;;5.37;100.00;92441.13;4729347;30;20575;-81
2024/02/28 07:47:40;;;;;;;1.77;1.00;;;;;;;5.40;100.00;92438.03;4730830;30;20032;-82
2024/02/28 07:50:06;;;;;;;0.77;0.70;;;;;;;5.41;100.00;92431.81;4726046;30;20057;-80
2024/02/28 07:52:34;;;;;;;0.82;0.80;;;;;;;5.47;100.00;92435.22;4733274;30;20032;-82
2024/02/28 07:55:02;;;;;;;1.20;0.73;;;;;;;5.48;100.00;92433.38;4731057;30;20041;-81
2024/02/28 07:57:27;;;;;;;1.98;0.82;;;;;;;5.51;100.00;92438.84;4744786;30;20450;-81
2024/02/28 07:59:53;;;;;;;0.80;0.80;;;;;;;5.55;100.00;92444.31;4730181;30;20048;-81
2024/02/28 08:02:20;;;;;;;0.70;0.70;;;;;;;5.57;100.00;92448.22;4727807;30;20143;-81
2024/02/28 08:04:46;;;;;;;0.75;0.75;;;;;;;5.59;100.00;92446.13;4727250;30;20109;-81
2024/02/28 08:07:11;;;;;;;0.77;0.70;;;;;;;5.60;100.00;92452.88;4727439;30;20048;-82
2024/02/28 08:09:37;;;;;;;0.73;0.70;;;;;;;5.62;100.00;92447.44;4731977;30;20040;-82
2024/02/28 08:12:03;;;;;;;0.82;0.82;;;;;;;5.66;100.00;92460.72;4744064;30;20041;-81
2024/02/28 08:14:29;;;;;;;1.00;0.90;;;;;;;5.70;100.00;92469.56;4730835;30;20051;-81
2024/02/28 08:16:56;;;;;;;0.70;0.70;;;;;;;5.73;100.00;92471.63;4729385;30;20481;-81
2024/02/28 08:19:21;;;;;;;0.70;0.70;;;;;;;5.76;100.00;92476.31;4729128;30;20052;-81
2024/02/28 08:21:49;;;;;;;1.33;0.90;;;;;;;5.79;100.00;92483.59;4734696;30;20058;-81
2024/02/28 08:24:15;;;;;;;0.70;0.70;;;;;;;5.84;100.00;92488.81;4736518;30;20108;-82
2024/02/28 08:26:41;;;;;;;1.20;0.82;;;;;;;5.88;100.00;92491.66;4746829;30;20041;-82
2024/02/28 08:29:07;;;;;;;0.85;0.85;;;;;;;5.97;100.00;92493.53;4729522;30;20645;-81
2024/02/28 08:31:33;;;;;;;1.10;1.00;;;;;;;5.94;100.00;92494.03;4718570;30;20076;-80
2024/02/28 08:33:58;;;;;;;4.80;0.90;;;;;;;5.98;100.00;92496.91;4731396;30;20332;-81
2024/02/28 08:36:24;;;;;;;0.80;0.80;;;;;;;6.03;100.00;92502.09;4726195;30;20048;-82
2024/02/28 08:38:51;;;;;;;1.10;1.00;;;;;;;6.07;100.00;92510.19;4737012;30;20652;-82
2024/02/28 08:41:17;;;;;;;0.75;0.75;;;;;;;6.11;100.00;92508.63;4758998;30;20043;-82
2024/02/28 08:43:42;;;;;;;0.80;0.70;;;;;;;6.14;100.00;92505.50;4730593;30;20048;-82
2024/02/28 08:46:08;;;;;;;1.52;0.80;;;;;;;6.21;100.00;92508.63;4754140;30;20040;-82
2024/02/28 08:48:34;;;;;;;0.80;0.80;;;;;;;6.28;100.00;92509.16;4728505;30;20287;-82
2024/02/28 08:51:00;;;;;;;2.30;0.80;;;;;;;6.35;100.00;92509.72;4712298;30;20041;-81
2024/02/28 08:53:26;;;;;;;0.75;0.65;;;;;;;6.40;100.00;92517.50;4729144;30;20028;-80
2024/02/28 08:55:51;;;;;;;0.88;0.80;;;;;;;6.47;100.00;92522.44;4725401;30;20104;-80
2024/02/28 08:58:17;;;;;;;1.02;0.93;;;;;;;6.51;100.00;92533.91;4732258;30;20156;-81
2024/02/28 09:00:43;;;;;;;0.60;0.60;;;;;;;6.59;100.00;92530.00;4728458;30;20032;-83
2024/02/28 09:03:08;;;;;;;0.73;0.70;;;;;;;6.63;100.00;92536.25;4736363;30;20384;-80
2024/02/28 09:05:34;;;;;;;0.82;0.82;;;;;;;6.69;100.00;92535.22;4724079;30;20048;-81
2024/02/28 09:08:00;;;;;;;0.70;0.70;;;;;;;6.75;100.00;92539.34;4729242;30;20045;-81
2024/02/28 09:10:26;;;;;;;3.03;0.60;;;;;;;6.80;100.00;92541.97;4726261;30;20055;-81
2024/02/28 09:12:52;;;;;;;1.27;0.80;;;;;;;6.88;100.00;92535.44;4736048;30;20740;-81
2024/02/28 09:15:18;;;;;;;1.67;0.60;;;;;;;6.92;100.00;92539.09;4731221;30;20413;-82
2024/02/28 09:17:43;;;;;;;1.75;0.70;;;;;;;7.01;100.00;92542.72;4730425;30;20072;-81
2024/02/28 09:20:10;;;;;;;0.70;0.70;;;;;;;7.04;100.00;92546.63;4730903;30;20040;-81
2024/02/28 09:22:36;;;;;;;4.32;0.90;;;;;;;7.30;100.00;92549.97;4727318;30;20371;-82
2024/02/28 09:25:04;;;;;;;1.52;1.13;;;;;;;7.40;100.00;92557.75;4755503;30;20029;-81
2024/02/28 09:27:30;;;;;;;88.50;3.40;;;;;;;7.31;100.00;92556.72;4732334;30;20474;-80
2024/02/28 09:29:56;;;;;;;11.32;1.80;;;;;;;7.24;100.00;92561.44;4732037;30;20108;-82
2024/02/28 09:32:22;;;;;;;4.50;1.90;;;;;;;7.16;100.00;92567.16;4730774;30;20387;-83
2024/02/28 09:34:48;;;;;;;27.27;2.17;;;;;;;7.23;100.00;92565.88;4727364;30;20301;-81
2024/02/28 09:37:14;;;;;;;60.97;3.00;;;;;;;7.17;100.00;92559.09;4731099;30;20044;-81
2024/02/28 09:39:40;;;;;;;2.33;1.50;;;;;;;7.16;100.00;92562.75;4730110;30;20045;-80
2024/02/28 09:42:08;;;;;;;2.70;1.33;;;;;;;7.21;100.00;92575.00;4726247;30;20069;-80
2024/02/28 09:44:34;;;;;;;1.90;1.20;;;;;;;7.36;100.00;92568.97;4732444;30;20075;-81
2024/02/28 09:47:00;;;;;;;0.70;0.70;;;;;;;7.55;100.00;92582.22;4731960;30;20068;-80
2024/02/28 09:49:26;;;;;;;2.30;1.48;;;;;;;7.26;100.00;92583.56;4738789;30;20438;-80
2024/02/28 09:51:52;;;;;;;2.90;1.80;;;;;;;7.09;100.00;92580.44;4732471;30;20593;-81
2024/02/28 09:54:18;;;;;;;3.47;1.77;;;;;;;7.09;100.00;92581.25;4729279;30;20045;-81
2024/02/28 09:56:44;;;;;;;2.60;1.50;;;;;;;7.18;100.00;92581.50;4725694;30;20169;-82
2024/02/28 09:59:12;;;;;;;1.85;1.48;;;;;;;7.28;100.00;92583.31;4713605;30;20082;-81
2024/02/28 10:01:45;;;;;;;1.50;1.30;;;;;;;7.48;100.00;92592.91;4711972;30;20046;-81
2024/02/28 10:04:13;;;;;;;1.52;1.20;;;;;;;7.70;100.00;92588.16;4728903;30;20103;-81
2024/02/28 10:06:42;;;;;;;3.10;1.25;;;;;;;7.93;100.00;92580.78;4725737;30;20036;-82
2024/02/28 10:09:07;;;;;;;1.30;1.00;;;;;;;8.17;100.00;92587.97;4725121;30;20494;-81
2024/02/28 10:11:35;;;;;;;3.80;0.90;;;;;;;8.42;100.00;92584.47;4728337;30;20405;-81
2024/02/28 10:14:02;;;;;;;0.80;0.80;;;;;;;8.67;100.00;92576.50;4728530;30;20083;-82
2024/02/28 10:16:28;;;;;;;0.82;0.80;;;;;;;8.98;100.00;92580.72;4730232;30;20089;-83
2024/02/28 10:18:54;;;;;;;0.80;0.80;;;;;;;9.17;100.00;92581.63;4732553;30;20048;-81
2024/02/28 10:21:20;;;;;;;1.25;1.10;;;;;;;9.41;100.00;92594.72;4732653;30;20063;-80
2024/02/28 10:23:46;;;;;;;23.77;1.85;;;;;;;9.43;100.00;92597.06;4715922;30;20135;-81
2024/02/28 10:26:12;;;;;;;343.75;10.13;;;;;;;8.98;100.00;92586.72;4716387;30;20443;-81
2024/02/28 10:28:43;;;;;;;18.58;3.40;;;;;;;9.19;100.00;92584.72;4731728;30;20041;-81
2024/02/28 10:31:10;;;;;;;14.95;2.83;;;;;;;9.54;100.00;92588.06;4732539;30;20090;-82
2024/02/28 10:33:36;;;;;;;2.80;1.85;;;;;;;9.66;100.00;92595.50;4732426;30;20032;-81
2024/02/28 10:36:05;;;;;;;3.05;2.00;;;;;;;9.76;100.00;92596.19;4733066;30;20040;-80
2024/02/28 10:38:38;;;;;;;4.32;2.10;;;;;;;9.50;100.00;92600.13;4728785;30;20040;-81
2024/02/28 10:41:04;;;;;;;3.38;1.98;;;;;;;9.29;100.00;92602.91;4713649;30;20415;-80
2024/02/28 10:43:30;;;;;;;5.85;3.00;;;;;;;9.17;100.00;92607.72;4729021;30;20051;-80
2024/02/28 10:45:59;;;;;;;7.00;2.60;;;;;;;9.01;100.00;92611.53;4730214;30;20047;-80
2024/02/28 10:48:26;;;;;;;3.38;2.00;;;;;;;8.92;100.00;92613.94;4728733;30;20107;-80
2024/02/28 10:50:55;;;;;;;5.03;2.17;;;;;;;9.15;100.00;92618.44;4730902;30;20398;-81
2024/02/28 10:53:28;;;;;;;3.35;2.10;;;;;;;9.19;100.00;92621.31;4741340;30;20110;-80
2024/02/28 10:55:58;;;;;;;3.53;2.20;;;;;;;9.34;100.00;92613.34;4746422;30;20112;-80
2024/02/28 10:58:25;;;;;;;4.35;2.50;;;;;;;9.40;100.00;92608.06;4735891;30;20037;-80
2024/02/28 11:00:51;;;;;;;4.57;2.80;;;;;;;9.52;100.00;92611.84;4738049;30;20134;-80
2024/02/28 11:03:18;;;;;;;4.22;2.50;;;;;;;9.72;100.00;92616.09;4738641;30;20067;-80
2024/02/28 11:05:46;;;;;;;6.88;2.35;;;;;;;10.06;100.00;92615.22;4742201;30;20024;-79
2024/02/28 11:08:23;;;;;;;3.63;1.88;;;;;;;10.29;100.00;92605.03;4732601;30;20052;-81
2024/02/28 11:10:59;;;;;;;3.60;2.00;;;;;;;10.58;100.00;92616.19;4727735;30;20040;-81
2024/02/28 11:13:26;;;;;;;3.03;1.67;;;;;;;10.82;100.00;92607.47;4730387;30;20071;-82
2024/02/28 11:15:52;;;;;;;2.95;1.80;;;;;;;11.05;100.00;92597.97;4734038;30;20387;-80
2024/02/28 11:18:18;;;;;;;2.83;1.70;;;;;;;11.32;100.00;92604.38;4737931;30;20041;-80
2024/02/28 11:20:47;;;;;;;2.65;1.42;;;;;;;11.33;100.00;92604.09;4732573;30;20053;-81
2024/02/28 11:23:14;;;;;;;2.83;1.60;;;;;;;11.53;100.00;92602.16;4741845;30;20041;-81
2024/02/28 11:25:40;;;;;;;3.15;1.52;;;;;;;11.72;100.00;92604.75;4738171;30;20536;-80
2024/02/28 11:28:07;;;;;;;4.63;1.70;;;;;;;11.59;100.00;92609.66;4730894;30;20116;-80